createdAt,value
2022-12-23T00:01:25.474Z,5.46
2022-12-23T00:03:58.242Z,5.49
2022-12-23T00:06:27.325Z,5.48
2022-12-23T00:08:58.894Z,5.47
2022-12-23T00:11:28.898Z,5.47
2022-12-23T00:14:20.627Z,5.47
2022-12-23T00:16:51.367Z,5.49
2022-12-23T00:19:21.095Z,5.50
2022-12-23T00:21:49.710Z,5.50
2022-12-23T00:24:17.882Z,5.51
2022-12-23T00:26:46.251Z,5.49
2022-12-23T00:29:14.584Z,5.49
2022-12-23T00:31:42.871Z,5.49
2022-12-23T00:34:12.189Z,5.48
2022-12-23T00:36:41.745Z,5.45
2022-12-23T00:39:30.844Z,5.45
2022-12-23T00:42:16.508Z,5.45
2022-12-23T00:44:44.728Z,5.44
2022-12-23T00:47:32.879Z,5.44
2022-12-23T00:50:00.120Z,5.42
2022-12-23T00:52:29.591Z,5.39
2022-12-23T00:54:57.792Z,5.38
2022-12-23T00:57:25.968Z,5.37
2022-12-23T00:59:54.126Z,5.35
2022-12-23T01:02:39.619Z,5.36
2022-12-23T01:05:26.227Z,5.36
2022-12-23T01:07:55.882Z,5.34
2022-12-23T01:10:24.015Z,5.34
2022-12-23T01:12:52.504Z,5.32
2022-12-23T01:15:20.745Z,5.31
2022-12-23T01:17:48.876Z,5.29
2022-12-23T01:20:17.089Z,5.27
2022-12-23T01:22:45.213Z,5.27
2022-12-23T01:25:14.713Z,5.27
2022-12-23T01:27:42.798Z,5.25
2022-12-23T01:30:11.395Z,5.22
2022-12-23T01:32:39.826Z,5.23
2022-12-23T01:35:08.244Z,5.21
2022-12-23T01:37:36.380Z,5.15
2022-12-23T01:40:04.899Z,5.13
2022-12-23T01:42:51.863Z,5.13
2022-12-23T01:45:24.748Z,5.15
2022-12-23T01:47:56.386Z,5.17
2022-12-23T01:50:28.845Z,5.18
2022-12-23T01:53:07.235Z,5.17
2022-12-23T01:55:39.784Z,5.16
2022-12-23T01:58:13.361Z,5.18
2022-12-23T02:01:00.980Z,5.19
2022-12-23T02:03:47.021Z,5.19
2022-12-23T02:06:38.154Z,5.17
2022-12-23T02:09:18.762Z,5.18
2022-12-23T02:12:06.284Z,5.17
2022-12-23T02:15:10.427Z,5.13
2022-12-23T02:17:45.234Z,5.12
2022-12-23T02:20:34.133Z,5.11
2022-12-23T02:23:31.018Z,5.10
2022-12-23T02:26:22.999Z,5.10
2022-12-23T02:29:12.752Z,5.12
2022-12-23T02:31:50.452Z,5.11
2022-12-23T02:34:22.892Z,5.09
2022-12-23T02:37:00.503Z,5.07
2022-12-23T02:39:38.355Z,5.06
2022-12-23T02:42:12.106Z,5.05
2022-12-23T02:44:42.683Z,5.03
2022-12-23T02:47:16.367Z,5.03
2022-12-23T02:49:50.228Z,5.02
2022-12-23T02:52:22.027Z,5.00
2022-12-23T02:54:53.764Z,4.98
2022-12-23T02:57:28.161Z,4.96
2022-12-23T03:00:00.533Z,4.91
2022-12-23T03:02:32.337Z,4.90
2022-12-23T03:05:01.281Z,4.88
2022-12-23T03:07:34.548Z,4.89
2022-12-23T03:10:09.008Z,4.92
2022-12-23T03:12:50.063Z,4.92
2022-12-23T03:15:30.459Z,4.89
2022-12-23T03:18:08.034Z,4.84
2022-12-23T03:20:43.388Z,4.80
2022-12-23T03:23:21.377Z,4.81
2022-12-23T03:25:59.132Z,4.81
2022-12-23T03:28:34.590Z,4.83
2022-12-23T03:31:05.919Z,4.81
2022-12-23T03:33:38.800Z,4.78
2022-12-23T03:36:11.373Z,4.78
2022-12-23T03:38:41.965Z,4.78
2022-12-23T03:41:14.984Z,4.79
2022-12-23T03:43:51.157Z,4.78
2022-12-23T03:46:24.624Z,4.76
2022-12-23T03:48:57.495Z,4.75
2022-12-23T03:51:31.001Z,4.74
2022-12-23T03:54:02.803Z,4.74
2022-12-23T03:56:35.030Z,4.76
2022-12-23T03:59:09.544Z,4.76
2022-12-23T04:01:58.136Z,4.77
2022-12-23T04:04:33.395Z,4.79
2022-12-23T04:07:07.993Z,4.77
2022-12-23T04:09:37.307Z,4.76
2022-12-23T04:12:06.223Z,4.75
2022-12-23T04:14:36.534Z,4.75
2022-12-23T04:17:04.920Z,4.74
2022-12-23T04:19:34.501Z,4.74
2022-12-23T04:22:02.622Z,4.73
2022-12-23T04:24:30.924Z,4.74
2022-12-23T04:26:59.024Z,4.74
2022-12-23T04:29:27.212Z,4.75
2022-12-23T04:31:55.416Z,4.78
2022-12-23T04:34:23.603Z,4.79
2022-12-23T04:36:53.047Z,4.82
2022-12-23T04:39:21.208Z,4.82
2022-12-23T04:41:49.534Z,4.82
2022-12-23T04:44:17.813Z,4.82
2022-12-23T04:46:46.673Z,4.82
2022-12-23T04:49:14.829Z,4.82
2022-12-23T04:51:42.896Z,4.81
2022-12-23T04:54:12.450Z,4.80
2022-12-23T04:56:40.604Z,4.78
2022-12-23T04:59:08.753Z,4.76
2022-12-23T05:01:36.965Z,4.74
2022-12-23T05:04:05.586Z,4.73
2022-12-23T05:06:33.693Z,4.74
2022-12-23T05:09:01.875Z,4.73
2022-12-23T05:11:31.420Z,4.71
2022-12-23T05:13:59.969Z,4.69
2022-12-23T05:16:28.189Z,4.69
2022-12-23T05:18:56.413Z,4.70
2022-12-23T05:21:24.512Z,4.67
2022-12-23T05:23:52.754Z,4.67
2022-12-23T05:26:20.874Z,4.66
2022-12-23T05:28:50.356Z,4.64
2022-12-23T05:31:18.492Z,4.62
2022-12-23T05:33:46.764Z,4.62
2022-12-23T05:36:14.978Z,4.61
2022-12-23T05:38:43.134Z,4.58
2022-12-23T05:41:11.265Z,4.57
2022-12-23T05:43:39.482Z,4.57
2022-12-23T05:46:08.997Z,4.58
2022-12-23T05:48:37.213Z,4.57
2022-12-23T05:51:05.586Z,4.55
2022-12-23T05:53:33.881Z,4.54
2022-12-23T05:56:05.684Z,4.54
2022-12-23T05:58:34.175Z,4.53
2022-12-23T06:01:03.213Z,4.52
2022-12-23T06:03:33.188Z,4.51
2022-12-23T06:06:01.463Z,4.50
2022-12-23T06:08:29.757Z,4.49
2022-12-23T06:10:59.894Z,4.48
2022-12-23T06:13:28.204Z,4.47
2022-12-23T06:15:56.333Z,4.46
2022-12-23T06:18:24.528Z,4.45
2022-12-23T06:20:53.904Z,4.46
2022-12-23T06:23:22.103Z,4.45
2022-12-23T06:25:50.223Z,4.44
2022-12-23T06:28:18.435Z,4.45
2022-12-23T06:30:46.535Z,4.45
2022-12-23T06:33:14.729Z,4.44
2022-12-23T06:35:44.407Z,4.44
2022-12-23T06:38:13.965Z,4.44
2022-12-23T06:40:42.213Z,4.43
2022-12-23T06:43:13.403Z,4.42
2022-12-23T06:45:41.725Z,4.42
2022-12-23T06:48:09.853Z,4.42
2022-12-23T06:50:38.193Z,4.40
2022-12-23T06:53:06.363Z,4.38
2022-12-23T06:55:36.064Z,4.38
2022-12-23T06:58:04.206Z,4.37
2022-12-23T07:00:32.677Z,4.37
2022-12-23T07:03:00.991Z,4.37
2022-12-23T07:05:36.488Z,4.36
2022-12-23T07:08:05.544Z,4.35
2022-12-23T07:10:36.273Z,4.35
2022-12-23T07:13:04.396Z,4.34
2022-12-23T07:15:32.846Z,4.33
2022-12-23T07:18:01.003Z,4.34
2022-12-23T07:20:29.101Z,4.32
2022-12-23T07:22:58.038Z,4.29
2022-12-23T07:25:26.126Z,4.29
2022-12-23T07:27:56.376Z,4.29
2022-12-23T07:30:25.837Z,4.29
2022-12-23T07:32:54.542Z,4.30
2022-12-23T07:35:22.660Z,4.29
2022-12-23T07:37:53.735Z,4.27
2022-12-23T07:40:22.012Z,4.27
2022-12-23T07:42:50.998Z,4.28
2022-12-23T07:45:20.472Z,4.28
2022-12-23T07:47:48.693Z,4.28
2022-12-23T07:50:17.299Z,4.29
2022-12-23T07:52:45.445Z,4.28
2022-12-23T07:55:13.929Z,4.30
2022-12-23T07:57:42.508Z,4.30
2022-12-23T08:00:12.695Z,4.32
2022-12-23T08:02:42.770Z,4.32
2022-12-23T08:05:11.410Z,4.32
2022-12-23T08:07:39.869Z,4.33
2022-12-23T08:10:09.201Z,4.33
2022-12-23T08:12:37.413Z,4.32
2022-12-23T08:15:06.352Z,4.32
2022-12-23T08:17:34.495Z,4.33
2022-12-23T08:20:04.091Z,4.32
2022-12-23T08:22:32.672Z,4.32
2022-12-23T08:25:00.961Z,4.32
2022-12-23T08:27:30.044Z,4.31
2022-12-23T08:29:58.236Z,4.32
2022-12-23T08:32:28.230Z,4.32
2022-12-23T08:34:57.603Z,4.34
2022-12-23T08:37:27.302Z,4.35
2022-12-23T08:39:55.531Z,4.36
2022-12-23T08:42:23.659Z,4.35
2022-12-23T08:44:51.847Z,4.38
2022-12-23T08:47:19.978Z,4.40
2022-12-23T08:49:49.413Z,4.38
2022-12-23T08:52:17.602Z,4.38
2022-12-23T08:54:47.170Z,4.42
2022-12-23T08:57:15.405Z,4.44
2022-12-23T08:59:43.649Z,4.46
2022-12-23T09:02:15.107Z,4.45
2022-12-23T09:04:43.668Z,4.47
2022-12-23T09:07:11.900Z,4.46
2022-12-23T09:09:40.254Z,4.50
2022-12-23T09:12:09.872Z,4.53
2022-12-23T09:14:38.022Z,4.58
2022-12-23T09:17:06.203Z,4.61
2022-12-23T09:19:34.523Z,4.62
2022-12-23T09:22:02.674Z,4.62
2022-12-23T09:24:31.348Z,4.64
2022-12-23T09:26:59.463Z,4.66
2022-12-23T09:29:28.971Z,4.67
2022-12-23T09:31:57.119Z,4.66
2022-12-23T09:34:26.955Z,4.65
2022-12-23T09:36:55.757Z,4.65
2022-12-23T09:39:24.343Z,4.64
2022-12-23T09:42:03.102Z,4.63
2022-12-23T09:44:50.865Z,4.64
2022-12-23T09:47:22.929Z,4.64
2022-12-23T09:49:53.694Z,4.64
2022-12-23T09:52:27.562Z,4.62
2022-12-23T09:54:56.943Z,4.63
2022-12-23T09:57:32.566Z,4.66
2022-12-23T10:00:12.126Z,4.65
2022-12-23T10:02:48.924Z,4.66
2022-12-23T10:05:26.030Z,4.67
2022-12-23T10:07:59.771Z,4.67
2022-12-23T10:10:31.777Z,4.69
2022-12-23T10:13:03.340Z,4.76
2022-12-23T10:15:38.633Z,4.87
2022-12-23T10:18:16.231Z,4.97
2022-12-23T10:20:52.063Z,5.02
2022-12-23T10:23:30.591Z,5.05
2022-12-23T10:25:58.939Z,5.12
2022-12-23T10:28:29.695Z,5.14
2022-12-23T10:34:01.379Z,5.24
2022-12-23T10:36:41.259Z,5.32
2022-12-23T10:39:21.433Z,5.36
2022-12-23T10:42:01.496Z,5.34
2022-12-23T10:44:55.944Z,5.28
2022-12-23T10:47:32.111Z,5.27
2022-12-23T10:50:16.519Z,5.25
2022-12-23T10:52:47.335Z,5.27
2022-12-23T10:55:28.500Z,5.30
2022-12-23T10:58:06.944Z,5.33
2022-12-23T11:00:38.167Z,5.36
2022-12-23T11:03:18.970Z,5.39
2022-12-23T11:05:47.940Z,5.40
2022-12-23T11:08:16.592Z,5.40
2022-12-23T11:10:45.345Z,5.42
2022-12-23T11:13:25.225Z,5.47
2022-12-23T11:15:53.902Z,5.42
2022-12-23T11:18:23.440Z,5.45
2022-12-23T11:21:05.580Z,5.49
2022-12-23T11:23:36.813Z,5.52
2022-12-23T11:26:07.956Z,5.47
2022-12-23T11:28:39.397Z,5.45
2022-12-23T11:31:12.163Z,5.53
2022-12-23T11:33:47.347Z,5.55
2022-12-23T11:36:23.916Z,5.59
2022-12-23T11:38:54.880Z,5.66
2022-12-23T11:41:26.463Z,5.74
2022-12-23T11:43:59.631Z,5.81
2022-12-23T11:46:29.873Z,5.86
2022-12-23T11:49:19.402Z,5.91
2022-12-23T11:51:50.326Z,5.91
2022-12-23T11:54:23.394Z,5.92
2022-12-23T11:56:54.187Z,5.96
2022-12-23T11:59:32.719Z,5.99
2022-12-23T12:02:03.597Z,6.05
2022-12-23T12:04:35.661Z,6.14
2022-12-23T12:07:06.251Z,6.24
2022-12-23T12:09:35.748Z,6.32
2022-12-23T12:12:08.324Z,6.36
2022-12-23T12:14:44.192Z,6.42
2022-12-23T12:17:19.216Z,6.52
2022-12-23T12:20:00.284Z,6.77
2022-12-23T12:22:36.799Z,6.90
2022-12-23T12:25:16.854Z,6.90
2022-12-23T12:27:49.881Z,6.87
2022-12-23T12:30:21.663Z,6.85
2022-12-23T12:32:57.426Z,6.86
2022-12-23T12:35:37.809Z,6.89
2022-12-23T12:38:17.147Z,7.02
2022-12-23T12:40:51.122Z,7.11
2022-12-23T12:43:27.548Z,7.13
2022-12-23T12:46:09.833Z,7.08
2022-12-23T12:48:46.033Z,7.04
2022-12-23T12:51:23.654Z,7.01
2022-12-23T12:54:05.271Z,7.01
2022-12-23T12:56:41.617Z,7.01
2022-12-23T12:59:17.471Z,7.01
2022-12-23T13:01:59.160Z,7.01
2022-12-23T13:04:47.906Z,7.07
2022-12-23T13:07:27.930Z,7.12
2022-12-23T13:10:04.503Z,7.18
2022-12-23T13:12:46.122Z,7.22
2022-12-23T13:15:23.148Z,7.24
2022-12-23T13:18:09.030Z,7.25
2022-12-23T13:20:44.440Z,7.27
2022-12-23T13:23:42.361Z,7.27
2022-12-23T13:26:19.663Z,7.30
2022-12-23T13:28:56.104Z,7.31
2022-12-23T13:31:35.974Z,7.35
2022-12-23T13:34:21.011Z,7.42
2022-12-23T13:36:58.524Z,7.45
2022-12-23T13:39:38.141Z,7.47
2022-12-23T13:42:11.543Z,7.54
2022-12-23T13:44:40.322Z,7.56
2022-12-23T13:47:16.193Z,7.57
2022-12-23T13:49:55.092Z,7.58
2022-12-23T13:52:36.032Z,7.59
2022-12-23T13:55:20.124Z,7.59
2022-12-23T13:57:57.748Z,7.55
2022-12-23T14:00:29.302Z,7.55
2022-12-23T14:03:20.725Z,7.51
2022-12-23T14:05:50.738Z,7.47
2022-12-23T14:08:26.901Z,7.45
2022-12-23T14:11:00.051Z,7.47
2022-12-23T14:13:31.297Z,7.47
2022-12-23T14:16:21.804Z,7.47
2022-12-23T14:19:06.622Z,7.49
2022-12-23T14:21:44.516Z,7.46
2022-12-23T14:24:45.686Z,7.41
2022-12-23T14:27:32.587Z,7.43
2022-12-23T14:30:11.287Z,7.46
2022-12-23T14:32:46.807Z,7.49
2022-12-23T14:35:23.902Z,7.48
2022-12-23T14:38:09.730Z,7.51
2022-12-23T14:41:00.211Z,7.51
2022-12-23T14:43:52.768Z,7.54
2022-12-23T14:46:55.569Z,7.56
2022-12-23T14:49:44.050Z,7.59
2022-12-23T14:52:44.410Z,7.64
2022-12-23T14:55:46.969Z,7.65
2022-12-23T14:58:40.712Z,7.58
2022-12-23T15:01:13.227Z,7.55
2022-12-23T15:03:46.558Z,7.51
2022-12-23T15:06:20.357Z,7.44
2022-12-23T15:08:50.126Z,7.38
2022-12-23T15:11:25.882Z,7.33
2022-12-23T15:13:58.297Z,7.30
2022-12-23T15:16:35.366Z,7.23
2022-12-23T15:19:17.646Z,7.18
2022-12-23T15:21:49.140Z,7.13
2022-12-23T15:24:22.771Z,7.15
2022-12-23T15:27:24.576Z,7.19
2022-12-23T15:29:48.567Z,7.20
2022-12-23T15:32:17.831Z,7.20
2022-12-23T15:34:48.915Z,7.19
2022-12-23T15:37:19.752Z,7.21
2022-12-23T15:39:55.231Z,7.19
2022-12-23T15:42:31.368Z,7.19
2022-12-23T15:45:00.879Z,7.18
2022-12-23T15:47:31.733Z,7.15
2022-12-23T15:50:00.883Z,7.09
2022-12-23T15:52:30.812Z,7.03
2022-12-23T15:55:03.843Z,6.91
2022-12-23T15:57:32.662Z,6.90
2022-12-23T16:00:02.869Z,6.87
2022-12-23T16:03:02.299Z,6.88
2022-12-23T16:05:33.816Z,6.87
2022-12-23T16:08:29.004Z,6.79
2022-12-23T16:11:04.661Z,6.70
2022-12-23T16:13:47.281Z,6.70
2022-12-23T16:16:19.715Z,6.68
2022-12-23T16:18:48.241Z,6.66
2022-12-23T16:21:17.029Z,6.65
2022-12-23T16:23:51.102Z,6.61
2022-12-23T16:26:20.019Z,6.68
2022-12-23T16:28:51.755Z,6.70
2022-12-23T16:31:21.580Z,6.77
2022-12-23T16:33:52.511Z,6.84
2022-12-23T16:36:23.882Z,6.86
2022-12-23T16:38:53.820Z,6.81
2022-12-23T16:41:22.001Z,6.73
2022-12-23T16:43:53.171Z,6.72
2022-12-23T16:46:23.336Z,6.75
2022-12-23T16:48:55.864Z,6.75
2022-12-23T16:51:25.773Z,6.71
2022-12-23T16:53:56.583Z,6.65
2022-12-23T16:56:28.369Z,6.58
2022-12-23T16:58:57.943Z,6.54
2022-12-23T17:01:28.576Z,6.46
2022-12-23T17:03:57.022Z,6.43
2022-12-23T17:06:26.090Z,6.38
2022-12-23T17:08:54.896Z,6.38
2022-12-23T17:11:26.894Z,6.34
2022-12-23T17:13:59.769Z,6.26
2022-12-23T17:16:33.859Z,6.16
2022-12-23T17:19:02.153Z,6.13
2022-12-23T17:21:34.999Z,6.18
2022-12-23T17:24:06.214Z,6.15
2022-12-23T17:26:34.676Z,6.13
2022-12-23T17:29:03.761Z,6.11
2022-12-23T17:31:34.199Z,6.09
2022-12-23T17:34:02.732Z,6.08
2022-12-23T17:36:31.359Z,6.05
2022-12-23T17:38:59.609Z,6.03
2022-12-23T17:41:30.985Z,6.00
2022-12-23T17:43:59.833Z,6.03
2022-12-23T17:46:28.557Z,6.02
2022-12-23T17:48:59.290Z,6.01
2022-12-23T17:51:28.333Z,5.95
2022-12-23T17:53:58.299Z,5.88
2022-12-23T17:56:29.155Z,5.88
2022-12-23T17:58:57.323Z,5.90
2022-12-23T18:01:27.308Z,5.91
2022-12-23T18:03:58.308Z,5.87
2022-12-23T18:06:28.606Z,5.82
2022-12-23T18:08:57.927Z,5.84
2022-12-23T18:11:32.269Z,5.84
2022-12-23T18:14:00.908Z,5.81
2022-12-23T18:16:29.311Z,5.78
2022-12-23T18:18:58.937Z,5.73
2022-12-23T18:21:29.443Z,5.69
2022-12-23T18:24:00.842Z,5.66
2022-12-23T18:26:29.075Z,5.63
2022-12-23T18:28:57.181Z,5.60
2022-12-23T18:31:27.573Z,5.55
2022-12-23T18:33:56.030Z,5.47
2022-12-23T18:36:27.505Z,5.47
2022-12-23T18:38:57.259Z,5.46
2022-12-23T18:41:27.179Z,5.53
2022-12-23T18:43:55.958Z,5.57
2022-12-23T18:46:24.194Z,5.58
2022-12-23T18:48:52.652Z,5.60
2022-12-23T18:51:22.634Z,5.61
2022-12-23T18:53:52.249Z,5.63
2022-12-23T18:56:21.477Z,5.64
2022-12-23T18:58:49.671Z,5.61
2022-12-23T19:01:19.464Z,5.57
2022-12-23T19:03:48.044Z,5.57
2022-12-23T19:06:17.073Z,5.62
2022-12-23T19:08:46.533Z,5.62
2022-12-23T19:11:18.356Z,5.62
2022-12-23T19:13:46.983Z,5.69
2022-12-23T19:16:16.514Z,5.79
2022-12-23T19:18:45.394Z,5.84
2022-12-23T19:21:13.842Z,5.87
2022-12-23T19:23:43.055Z,5.88
2022-12-23T19:26:13.006Z,5.91
2022-12-23T19:28:43.005Z,5.91
2022-12-23T19:31:13.772Z,5.95
2022-12-23T19:33:43.548Z,6.01
2022-12-23T19:36:12.938Z,5.99
2022-12-23T19:38:41.689Z,5.96
2022-12-23T19:41:10.317Z,6.01
2022-12-23T19:43:39.841Z,6.03
2022-12-23T19:46:10.879Z,6.05
2022-12-23T19:48:39.416Z,6.04
2022-12-23T19:51:10.434Z,5.99
2022-12-23T19:53:39.236Z,5.96
2022-12-23T19:56:11.155Z,5.89
2022-12-23T19:58:42.306Z,5.88
2022-12-23T20:01:14.197Z,5.85
2022-12-23T20:03:43.665Z,5.78
2022-12-23T20:06:15.867Z,5.73
2022-12-23T20:08:44.810Z,5.70
2022-12-23T20:11:15.113Z,5.68
2022-12-23T20:13:43.534Z,5.66
2022-12-23T20:16:13.495Z,5.65
2022-12-23T20:18:41.917Z,5.61
2022-12-23T20:21:10.097Z,5.58
2022-12-23T20:23:38.472Z,5.56
2022-12-23T20:26:06.632Z,5.54
2022-12-23T20:28:35.229Z,5.46
2022-12-23T20:31:09.038Z,5.43
2022-12-23T20:33:40.432Z,5.43
2022-12-23T20:36:09.640Z,5.40
2022-12-23T20:38:39.792Z,5.43
2022-12-23T20:41:08.502Z,5.43
2022-12-23T20:43:36.641Z,5.41
2022-12-23T20:46:06.307Z,5.40
2022-12-23T20:48:35.326Z,5.39
2022-12-23T20:51:08.603Z,5.36
2022-12-23T20:53:37.069Z,5.31
2022-12-23T20:56:07.702Z,5.23
2022-12-23T20:58:56.069Z,5.14
2022-12-23T21:01:26.275Z,5.08
2022-12-23T21:03:54.775Z,5.01
2022-12-23T21:06:24.903Z,5.03
2022-12-23T21:08:55.774Z,5.08
2022-12-23T21:11:24.548Z,5.17
2022-12-23T21:13:53.066Z,5.33
2022-12-23T21:16:21.441Z,5.47
2022-12-23T21:18:53.297Z,5.60
2022-12-23T21:21:23.667Z,5.67
2022-12-23T21:23:54.491Z,5.69
2022-12-23T21:26:25.216Z,5.69
2022-12-23T21:28:55.513Z,5.69
2022-12-23T21:31:24.823Z,5.68
2022-12-23T21:33:54.114Z,5.66
2022-12-23T21:36:24.348Z,5.65
2022-12-23T21:38:54.246Z,5.58
2022-12-23T21:41:24.149Z,5.51
2022-12-23T21:43:52.954Z,5.44
2022-12-23T21:46:23.309Z,5.39
2022-12-23T21:48:51.614Z,5.40
2022-12-23T21:51:22.095Z,5.44
2022-12-23T21:53:51.693Z,5.51
2022-12-23T21:56:24.267Z,5.55
2022-12-23T21:58:56.640Z,5.60
2022-12-23T22:01:25.993Z,5.61
2022-12-23T22:03:55.063Z,5.64
2022-12-23T22:06:25.114Z,5.70
2022-12-23T22:08:54.792Z,5.76
2022-12-23T22:11:26.286Z,5.80
2022-12-23T22:13:56.613Z,5.89
2022-12-23T22:16:26.716Z,5.92
2022-12-23T22:18:56.113Z,5.92
2022-12-23T22:21:26.292Z,5.92
2022-12-23T22:23:55.943Z,5.89
2022-12-23T22:26:28.124Z,5.82
2022-12-23T22:28:57.363Z,5.80
2022-12-23T22:31:32.697Z,5.83
2022-12-23T22:34:01.111Z,5.89
2022-12-23T22:36:29.438Z,5.93
2022-12-23T22:39:00.283Z,5.93
2022-12-23T22:41:31.061Z,5.93
2022-12-23T22:44:00.235Z,5.92
2022-12-23T22:46:29.054Z,5.93
2022-12-23T22:48:58.947Z,5.94
2022-12-23T22:51:29.278Z,5.95
2022-12-23T22:53:58.252Z,5.93
2022-12-23T22:56:27.412Z,5.89
2022-12-23T22:58:57.115Z,5.87
2022-12-23T23:01:27.054Z,5.87
2022-12-23T23:03:57.876Z,5.82
2022-12-23T23:06:26.829Z,5.76
2022-12-23T23:08:56.325Z,5.70
2022-12-23T23:11:25.687Z,5.63
2022-12-23T23:13:54.324Z,5.56
2022-12-23T23:16:25.208Z,5.50
2022-12-23T23:18:55.011Z,5.52
2022-12-23T23:21:23.432Z,5.50
2022-12-23T23:23:51.766Z,5.50
2022-12-23T23:26:20.905Z,5.53
2022-12-23T23:28:49.656Z,5.52
2022-12-23T23:31:41.010Z,5.50
2022-12-23T23:34:07.315Z,5.51
2022-12-23T23:36:35.523Z,5.55
2022-12-23T23:39:04.008Z,5.58
2022-12-23T23:41:32.350Z,5.57
2022-12-23T23:44:00.531Z,5.55
2022-12-23T23:46:30.562Z,5.59
2022-12-23T23:48:59.110Z,5.65
2022-12-23T23:51:28.560Z,5.67
2022-12-23T23:53:56.804Z,5.73
2022-12-23T23:56:26.691Z,5.69
2022-12-23T23:58:56.357Z,5.65
